createdAt,value
2023-04-14T00:01:51.488Z,4.40
2023-04-14T00:04:19.949Z,4.40
2023-04-14T00:06:47.107Z,4.30
2023-04-14T00:09:14.014Z,4.30
2023-04-14T00:11:41.292Z,4.40
2023-04-14T00:14:08.285Z,4.40
2023-04-14T00:16:35.632Z,4.40
2023-04-14T00:19:02.918Z,4.40
2023-04-14T00:21:29.944Z,4.40
2023-04-14T00:23:56.914Z,4.40
2023-04-14T00:26:24.435Z,4.40
2023-04-14T00:28:51.281Z,4.30
2023-04-14T00:31:18.280Z,4.30
2023-04-14T00:33:45.144Z,4.30
2023-04-14T00:36:12.066Z,4.40
2023-04-14T00:38:39.726Z,4.40
2023-04-14T00:41:06.957Z,4.30
2023-04-14T00:43:33.842Z,4.30
2023-04-14T00:46:00.925Z,4.30
2023-04-14T00:48:28.146Z,4.30
2023-04-14T00:50:55.345Z,4.40
2023-04-14T00:53:22.321Z,4.30
2023-04-14T00:55:49.349Z,4.30
2023-04-14T00:58:16.396Z,4.30
2023-04-14T01:00:43.749Z,4.30
2023-04-14T01:03:11.105Z,4.30
2023-04-14T01:05:38.076Z,4.30
2023-04-14T01:08:05.364Z,4.30
2023-04-14T01:10:39.115Z,4.30
2023-04-14T01:13:16.278Z,4.30
2023-04-14T01:16:01.165Z,4.30
2023-04-14T01:18:41.280Z,4.40
2023-04-14T01:21:20.425Z,4.40
2023-04-14T01:24:04.933Z,4.40
2023-04-14T01:26:33.405Z,4.30
2023-04-14T01:29:03.407Z,4.30
2023-04-14T01:31:39.243Z,4.30
2023-04-14T01:34:33.867Z,4.30
2023-04-14T01:37:17.000Z,4.30
2023-04-14T01:39:52.278Z,4.20
2023-04-14T01:42:26.601Z,4.20
2023-04-14T01:44:58.939Z,4.20
2023-04-14T01:47:26.767Z,4.30
2023-04-14T01:49:55.806Z,4.30
2023-04-14T01:52:23.361Z,4.30
2023-04-14T01:54:53.518Z,4.30
2023-04-14T01:57:22.979Z,4.30
2023-04-14T01:59:53.832Z,4.30
2023-04-14T02:02:23.257Z,4.30
2023-04-14T02:04:52.128Z,4.30
2023-04-14T02:07:22.053Z,4.40
2023-04-14T02:09:49.815Z,4.40
2023-04-14T02:12:20.334Z,4.30
2023-04-14T02:14:49.240Z,4.30
2023-04-14T02:17:18.571Z,4.30
2023-04-14T02:19:46.292Z,4.30
2023-04-14T02:22:13.590Z,4.30
2023-04-14T02:24:40.621Z,4.30
2023-04-14T02:27:21.249Z,4.30
2023-04-14T02:29:53.668Z,4.30
2023-04-14T02:32:25.028Z,4.30
2023-04-14T02:34:59.274Z,4.30
2023-04-14T02:37:31.687Z,4.30
2023-04-14T02:40:06.031Z,4.30
2023-04-14T02:42:37.480Z,4.40
2023-04-14T02:45:12.097Z,4.30
2023-04-14T02:47:43.500Z,4.30
2023-04-14T02:50:15.036Z,4.30
2023-04-14T02:52:44.036Z,4.40
2023-04-14T02:55:11.991Z,4.40
2023-04-14T02:57:39.638Z,4.30
2023-04-14T03:00:07.427Z,4.30
2023-04-14T03:02:36.753Z,4.30
2023-04-14T03:05:05.804Z,4.30
2023-04-14T03:07:34.540Z,4.30
2023-04-14T03:10:02.102Z,4.30
2023-04-14T03:12:30.476Z,4.30
2023-04-14T03:14:59.583Z,4.20
2023-04-14T03:17:27.607Z,4.30
2023-04-14T03:19:56.158Z,4.30
2023-04-14T03:22:26.687Z,4.30
2023-04-14T03:24:58.197Z,4.30
2023-04-14T03:27:31.606Z,4.20
2023-04-14T03:30:07.930Z,4.20
2023-04-14T03:32:41.841Z,4.20
2023-04-14T03:35:12.718Z,4.20
2023-04-14T03:37:41.655Z,4.20
2023-04-14T03:40:11.275Z,4.30
2023-04-14T03:42:40.724Z,4.30
2023-04-14T03:45:08.809Z,4.30
2023-04-14T03:47:35.999Z,4.30
2023-04-14T03:50:04.910Z,4.30
2023-04-14T03:52:34.409Z,4.30
2023-04-14T03:55:06.722Z,4.30
2023-04-14T03:57:35.012Z,4.30
2023-04-14T04:00:05.306Z,4.30
2023-04-14T04:02:33.224Z,4.30
2023-04-14T04:05:01.023Z,4.20
2023-04-14T04:07:30.625Z,4.20
2023-04-14T04:09:57.902Z,4.30
2023-04-14T04:12:26.693Z,4.30
2023-04-14T04:14:53.659Z,4.30
2023-04-14T04:17:24.326Z,4.30
2023-04-14T04:19:53.829Z,4.40
2023-04-14T04:22:23.661Z,4.40
2023-04-14T04:24:51.393Z,4.40
2023-04-14T04:27:27.701Z,4.40
2023-04-14T04:29:55.939Z,4.40
2023-04-14T04:32:23.794Z,4.50
2023-04-14T04:34:51.372Z,4.50
2023-04-14T04:37:19.896Z,4.50
2023-04-14T04:39:48.672Z,4.50
2023-04-14T04:42:16.597Z,4.60
2023-04-14T04:44:43.575Z,4.60
2023-04-14T04:47:12.160Z,4.60
2023-04-14T04:49:39.075Z,4.60
2023-04-14T04:52:06.204Z,4.60
2023-04-14T04:54:33.461Z,4.60
2023-04-14T04:57:03.764Z,4.70
2023-04-14T04:59:30.950Z,4.70
2023-04-14T05:01:58.020Z,4.70
2023-04-14T05:04:25.005Z,4.70
2023-04-14T05:06:52.076Z,4.70
2023-04-14T05:09:18.975Z,4.70
2023-04-14T05:11:45.912Z,4.70
2023-04-14T05:14:12.761Z,4.70
2023-04-14T05:16:39.702Z,4.70
2023-04-14T05:19:06.741Z,4.70
2023-04-14T05:21:33.707Z,4.70
2023-04-14T05:24:00.829Z,4.70
2023-04-14T05:26:49.143Z,4.70
2023-04-14T05:29:14.662Z,4.70
2023-04-14T05:31:41.515Z,4.70
2023-04-14T05:34:08.398Z,4.80
2023-04-14T05:36:35.369Z,4.80
2023-04-14T05:39:02.295Z,4.80
2023-04-14T05:41:32.445Z,4.80
2023-04-14T05:43:59.541Z,4.80
2023-04-14T05:46:26.898Z,4.80
2023-04-14T05:49:00.139Z,4.80
2023-04-14T05:51:27.970Z,4.80
2023-04-14T05:53:55.551Z,4.80
2023-04-14T05:56:22.481Z,4.70
2023-04-14T05:58:49.508Z,4.70
2023-04-14T06:01:19.502Z,4.70
2023-04-14T06:03:46.558Z,4.70
2023-04-14T06:06:13.533Z,4.70
2023-04-14T06:08:40.537Z,4.80
2023-04-14T06:11:07.467Z,4.80
2023-04-14T06:13:36.302Z,4.80
2023-04-14T06:16:03.670Z,4.80
2023-04-14T06:18:30.730Z,4.80
2023-04-14T06:20:57.661Z,4.90
2023-04-14T06:23:26.804Z,4.90
2023-04-14T06:25:55.113Z,4.90
2023-04-14T06:28:24.213Z,4.90
2023-04-14T06:30:51.688Z,5.00
2023-04-14T06:33:18.654Z,4.90
2023-04-14T06:35:45.483Z,4.90
2023-04-14T06:38:12.318Z,5.00
2023-04-14T06:40:39.220Z,5.00
2023-04-14T06:43:07.949Z,5.00
2023-04-14T06:45:34.793Z,5.00
2023-04-14T06:48:02.021Z,5.00
2023-04-14T06:50:29.118Z,5.00
2023-04-14T06:52:56.026Z,5.00
2023-04-14T06:55:23.108Z,5.00
2023-04-14T06:57:50.032Z,5.10
2023-04-14T07:00:17.237Z,5.10
2023-04-14T07:02:44.329Z,5.10
2023-04-14T07:05:11.380Z,5.20
2023-04-14T07:07:40.490Z,5.10
2023-04-14T07:10:07.867Z,5.20
2023-04-14T07:12:34.879Z,5.20
2023-04-14T07:15:01.815Z,5.30
2023-04-14T07:17:28.915Z,5.30
2023-04-14T07:19:56.846Z,5.30
2023-04-14T07:22:23.804Z,5.30
2023-04-14T07:24:51.199Z,5.30
2023-04-14T07:27:18.038Z,5.40
2023-04-14T07:29:44.969Z,5.40
2023-04-14T07:32:13.326Z,5.50
2023-04-14T07:34:43.752Z,5.50
2023-04-14T07:37:11.274Z,5.60
2023-04-14T07:39:38.575Z,5.50
2023-04-14T07:42:05.567Z,5.60
2023-04-14T07:44:33.293Z,5.60
2023-04-14T07:47:00.412Z,5.70
2023-04-14T07:49:27.398Z,5.60
2023-04-14T07:51:54.247Z,5.60
2023-04-14T07:54:21.876Z,5.60
2023-04-14T07:56:49.048Z,5.60
2023-04-14T07:59:16.170Z,5.70
2023-04-14T08:01:43.141Z,5.60
2023-04-14T08:04:11.028Z,5.60
2023-04-14T08:06:38.181Z,5.60
2023-04-14T08:09:05.098Z,5.60
2023-04-14T08:11:31.942Z,5.60
2023-04-14T08:13:58.788Z,5.70
2023-04-14T08:16:25.734Z,5.70
2023-04-14T08:18:53.930Z,5.90
2023-04-14T08:21:22.125Z,5.90
2023-04-14T08:23:48.950Z,6.00
2023-04-14T08:26:15.776Z,6.00
2023-04-14T08:28:42.618Z,6.00
2023-04-14T08:31:09.452Z,6.00
2023-04-14T08:33:36.293Z,6.10
2023-04-14T08:36:03.308Z,6.10
2023-04-14T08:38:30.414Z,6.30
2023-04-14T08:40:57.678Z,6.30
2023-04-14T08:43:24.556Z,6.30
2023-04-14T08:45:53.088Z,6.40
2023-04-14T08:48:21.635Z,6.40
2023-04-14T08:51:04.746Z,6.40
2023-04-14T08:53:33.017Z,6.50
2023-04-14T08:56:04.327Z,6.50
2023-04-14T08:58:32.359Z,6.50
2023-04-14T09:01:00.111Z,6.60
2023-04-14T09:03:27.648Z,6.70
2023-04-14T09:05:54.885Z,6.70
2023-04-14T09:08:22.458Z,6.90
2023-04-14T09:10:50.535Z,7.00
2023-04-14T09:13:20.941Z,6.90
2023-04-14T09:15:48.528Z,7.00
2023-04-14T09:18:16.014Z,7.00
2023-04-14T09:20:43.001Z,7.00
2023-04-14T09:23:10.959Z,6.90
2023-04-14T09:25:42.404Z,6.90
2023-04-14T09:28:10.528Z,7.10
2023-04-14T09:30:37.541Z,7.10
2023-04-14T09:33:06.378Z,7.30
2023-04-14T09:35:48.714Z,7.50
2023-04-14T09:38:30.789Z,7.60
2023-04-14T09:40:57.793Z,7.60
2023-04-14T09:43:27.163Z,7.70
2023-04-14T09:45:55.447Z,7.70
2023-04-14T09:48:22.534Z,7.70
2023-04-14T09:51:05.856Z,7.60
2023-04-14T09:53:37.395Z,7.70
2023-04-14T09:56:06.389Z,7.60
2023-04-14T09:58:35.159Z,7.70
2023-04-14T10:01:10.945Z,7.70
2023-04-14T10:03:45.724Z,7.80
2023-04-14T10:06:22.525Z,7.80
2023-04-14T10:08:54.086Z,7.70
2023-04-14T10:11:36.531Z,7.90
2023-04-14T10:14:06.457Z,8.10
2023-04-14T10:16:34.202Z,8.30
2023-04-14T10:19:02.182Z,8.30
2023-04-14T10:21:29.565Z,8.60
2023-04-14T10:23:57.927Z,8.70
2023-04-14T10:26:25.180Z,8.80
2023-04-14T10:28:54.597Z,8.60
2023-04-14T10:31:28.643Z,8.70
2023-04-14T10:33:55.975Z,9.00
2023-04-14T10:36:26.662Z,9.10
2023-04-14T10:39:02.331Z,9.30
2023-04-14T10:41:48.055Z,9.30
2023-04-14T10:44:35.115Z,9.40
2023-04-14T10:47:05.165Z,9.20
2023-04-14T10:49:41.156Z,9.10
2023-04-14T10:52:17.320Z,9.10
2023-04-14T10:54:53.823Z,8.90
2023-04-14T10:57:25.111Z,9.10
2023-04-14T10:59:57.507Z,9.40
2023-04-14T11:02:32.273Z,9.50
2023-04-14T11:05:05.447Z,9.80
2023-04-14T11:07:40.334Z,10.00
2023-04-14T11:10:22.871Z,10.30
2023-04-14T11:13:00.877Z,10.60
2023-04-14T11:15:47.311Z,10.60
2023-04-14T11:18:16.292Z,10.80
2023-04-14T11:20:44.135Z,10.90
2023-04-14T11:23:13.484Z,10.70
2023-04-14T11:25:40.596Z,10.80
2023-04-14T11:28:08.078Z,11.00
2023-04-14T11:30:34.999Z,11.80
2023-04-14T11:33:02.161Z,12.40
2023-04-14T11:35:31.264Z,13.00
2023-04-14T11:37:59.806Z,12.90
2023-04-14T11:40:27.695Z,12.90
2023-04-14T11:42:57.113Z,12.80
2023-04-14T11:45:29.121Z,12.30
2023-04-14T11:48:07.190Z,12.00
2023-04-14T11:50:39.103Z,11.70
2023-04-14T11:53:10.903Z,11.50
2023-04-14T11:55:41.213Z,11.50
2023-04-14T11:58:08.271Z,12.20
2023-04-14T12:00:35.332Z,12.40
2023-04-14T12:03:03.639Z,12.10
2023-04-14T12:05:33.807Z,11.40
2023-04-14T12:08:03.855Z,10.70
2023-04-14T12:10:32.108Z,10.40
2023-04-14T12:13:10.083Z,10.30
2023-04-14T12:15:38.909Z,10.40
2023-04-14T12:18:11.728Z,11.20
2023-04-14T12:21:02.583Z,11.90
2023-04-14T12:23:29.627Z,12.00
2023-04-14T12:25:56.710Z,12.00
2023-04-14T12:28:28.886Z,12.00
2023-04-14T12:31:04.216Z,12.10
2023-04-14T12:33:32.413Z,12.60
2023-04-14T12:36:12.357Z,13.40
2023-04-14T12:38:39.932Z,13.80
2023-04-14T12:41:07.049Z,13.80
2023-04-14T12:43:40.666Z,14.50
2023-04-14T12:46:08.082Z,15.40
2023-04-14T12:48:46.089Z,15.80
2023-04-14T12:51:15.071Z,16.60
2023-04-14T12:53:44.119Z,17.30
2023-04-14T12:56:12.240Z,18.30
2023-04-14T12:58:42.895Z,18.00
2023-04-14T13:01:13.889Z,17.30
2023-04-14T13:03:52.519Z,16.50
2023-04-14T13:06:22.016Z,15.30
2023-04-14T13:08:50.333Z,14.10
2023-04-14T13:11:18.744Z,12.60
2023-04-14T13:13:45.926Z,11.80
2023-04-14T13:16:18.091Z,11.00
2023-04-14T13:18:48.199Z,10.60
2023-04-14T13:21:15.916Z,10.30
2023-04-14T13:23:43.074Z,10.30
2023-04-14T13:26:10.514Z,10.10
2023-04-14T13:28:37.861Z,9.90
2023-04-14T13:31:04.897Z,10.10
2023-04-14T13:33:32.631Z,10.40
2023-04-14T13:35:59.571Z,10.60
2023-04-14T13:38:26.453Z,11.00
2023-04-14T13:40:53.414Z,11.40
2023-04-14T13:43:20.436Z,11.60
2023-04-14T13:45:47.416Z,11.80
2023-04-14T13:48:14.795Z,12.00
2023-04-14T13:50:42.238Z,12.00
2023-04-14T13:53:09.250Z,12.20
2023-04-14T13:55:36.558Z,12.30
2023-04-14T13:58:03.656Z,12.60
2023-04-14T14:00:30.870Z,12.90
2023-04-14T14:02:57.944Z,12.90
2023-04-14T14:05:25.110Z,13.20
2023-04-14T14:07:52.086Z,13.20
2023-04-14T14:10:19.247Z,13.20
2023-04-14T14:12:46.357Z,13.00
2023-04-14T14:15:13.558Z,12.90
2023-04-14T14:17:43.670Z,13.10
2023-04-14T14:20:10.892Z,13.10
2023-04-14T14:22:37.732Z,13.00
2023-04-14T14:25:18.559Z,13.20
2023-04-14T14:27:47.705Z,13.90
2023-04-14T14:30:14.712Z,14.50
2023-04-14T14:32:41.695Z,15.30
2023-04-14T14:35:09.782Z,16.00
2023-04-14T14:37:36.928Z,16.40
2023-04-14T14:40:04.414Z,16.70
2023-04-14T14:42:31.273Z,16.80
2023-04-14T14:45:01.009Z,16.30
2023-04-14T14:47:28.415Z,15.90
2023-04-14T14:50:02.697Z,15.50
2023-04-14T14:52:33.722Z,14.80
2023-04-14T14:55:01.128Z,14.50
2023-04-14T14:57:28.731Z,13.90
2023-04-14T14:59:55.780Z,13.40
2023-04-14T15:02:23.119Z,13.10
2023-04-14T15:04:50.337Z,12.80
2023-04-14T15:07:17.478Z,12.50
2023-04-14T15:09:47.063Z,12.30
2023-04-14T15:12:13.983Z,12.10
2023-04-14T15:14:40.937Z,12.10
2023-04-14T15:17:08.158Z,12.00
2023-04-14T15:19:34.978Z,11.70
2023-04-14T15:22:01.796Z,11.80
2023-04-14T15:24:28.886Z,11.60
2023-04-14T15:26:56.270Z,11.40
2023-04-14T15:29:26.059Z,11.30
2023-04-14T15:31:53.180Z,11.40
2023-04-14T15:34:21.391Z,11.10
2023-04-14T15:36:48.653Z,10.90
2023-04-14T15:39:15.767Z,10.50
2023-04-14T15:41:43.446Z,10.00
2023-04-14T15:44:10.539Z,9.60
2023-04-14T15:46:37.426Z,9.30
2023-04-14T15:49:04.387Z,9.10
2023-04-14T15:51:31.297Z,9.00
2023-04-14T15:53:58.072Z,8.80
2023-04-14T15:56:24.965Z,8.60
2023-04-14T15:58:51.745Z,8.50
2023-04-14T16:01:18.706Z,8.30
2023-04-14T16:03:45.739Z,8.00
2023-04-14T16:06:12.850Z,7.80
2023-04-14T16:08:39.825Z,7.70
2023-04-14T16:11:07.828Z,7.60
2023-04-14T16:13:34.767Z,7.60
2023-04-14T16:16:01.730Z,7.60
2023-04-14T16:18:28.796Z,7.70
2023-04-14T16:20:55.870Z,7.80
2023-04-14T16:23:22.737Z,7.90
2023-04-14T16:25:49.947Z,8.00
2023-04-14T16:28:16.809Z,7.90
2023-04-14T16:30:43.809Z,7.90
2023-04-14T16:33:10.834Z,7.90
2023-04-14T16:35:37.721Z,7.80
2023-04-14T16:38:08.494Z,7.70
2023-04-14T16:40:36.577Z,7.60
2023-04-14T16:43:04.035Z,7.50
2023-04-14T16:45:32.106Z,7.40
2023-04-14T16:47:59.624Z,7.40
2023-04-14T16:50:27.210Z,7.40
2023-04-14T16:52:54.487Z,7.40
2023-04-14T16:55:21.623Z,7.50
2023-04-14T16:57:48.447Z,7.50
2023-04-14T17:00:16.766Z,7.50
2023-04-14T17:02:43.826Z,7.40
2023-04-14T17:05:13.315Z,7.40
2023-04-14T17:07:40.860Z,7.50
2023-04-14T17:10:08.076Z,7.40
2023-04-14T17:12:34.930Z,7.40
2023-04-14T17:15:03.590Z,7.40
2023-04-14T17:17:31.646Z,7.30
2023-04-14T17:19:58.523Z,7.30
2023-04-14T17:22:25.339Z,7.30
2023-04-14T17:24:52.433Z,7.20
2023-04-14T17:27:19.440Z,7.20
2023-04-14T17:29:46.494Z,7.10
2023-04-14T17:32:13.669Z,7.00
2023-04-14T17:34:40.569Z,6.90
2023-04-14T17:37:07.607Z,6.80
2023-04-14T17:39:34.545Z,6.60
2023-04-14T17:42:01.567Z,6.40
2023-04-14T17:44:36.166Z,6.30
2023-04-14T17:47:12.813Z,6.30
2023-04-14T17:49:39.732Z,6.20
2023-04-14T17:52:07.991Z,6.10
2023-04-14T17:54:35.849Z,5.90
2023-04-14T17:57:04.344Z,5.80
2023-04-14T17:59:31.639Z,5.70
2023-04-14T18:01:58.657Z,5.70
2023-04-14T18:04:25.911Z,5.70
2023-04-14T18:06:52.891Z,5.80
2023-04-14T18:09:19.789Z,5.80
2023-04-14T18:11:46.738Z,5.80
2023-04-14T18:14:14.611Z,5.80
2023-04-14T18:16:41.901Z,5.90
2023-04-14T18:19:09.283Z,5.90
2023-04-14T18:21:36.341Z,5.90
2023-04-14T18:26:33.402Z,5.90
2023-04-14T18:29:01.050Z,5.90
2023-04-14T18:31:31.608Z,5.90
2023-04-14T18:34:04.636Z,5.90
2023-04-14T18:36:33.077Z,5.90
2023-04-14T18:39:01.278Z,5.90
2023-04-14T18:41:31.326Z,5.90
2023-04-14T18:43:58.356Z,5.90
2023-04-14T18:46:25.451Z,5.90
2023-04-14T18:48:52.459Z,5.90
2023-04-14T18:51:19.600Z,5.80
2023-04-14T18:53:46.851Z,5.80
2023-04-14T18:56:14.516Z,5.70
2023-04-14T18:58:41.901Z,5.70
2023-04-14T19:01:08.992Z,5.70
2023-04-14T19:03:36.798Z,5.70
2023-04-14T19:06:03.895Z,5.80
2023-04-14T19:08:34.014Z,5.80
2023-04-14T19:11:00.972Z,5.80
2023-04-14T19:13:27.974Z,5.90
2023-04-14T19:16:05.749Z,5.90
2023-04-14T19:18:32.836Z,6.00
2023-04-14T19:20:59.648Z,6.00
2023-04-14T19:23:26.540Z,6.00
2023-04-14T19:25:54.218Z,5.90
2023-04-14T19:28:21.825Z,5.90
2023-04-14T19:30:48.815Z,5.80
2023-04-14T19:33:15.949Z,5.80
2023-04-14T19:35:46.758Z,5.80
2023-04-14T19:38:13.848Z,5.80
2023-04-14T19:40:49.476Z,5.90
2023-04-14T19:43:18.164Z,5.90
2023-04-14T19:45:52.678Z,6.00
2023-04-14T19:48:23.921Z,6.00
2023-04-14T19:50:54.841Z,6.00
2023-04-14T19:53:23.005Z,6.00
2023-04-14T19:55:51.141Z,5.90
2023-04-14T19:58:21.787Z,6.00
2023-04-14T20:00:51.095Z,6.00
2023-04-14T20:03:19.328Z,6.00
2023-04-14T20:05:50.940Z,5.90
2023-04-14T20:08:18.098Z,5.90
2023-04-14T20:10:45.300Z,5.90
2023-04-14T20:13:13.125Z,5.90
2023-04-14T20:15:42.007Z,5.90
2023-04-14T20:18:08.966Z,5.90
2023-04-14T20:20:39.601Z,5.90
2023-04-14T20:23:07.204Z,5.90
2023-04-14T20:25:34.241Z,6.00
2023-04-14T20:28:01.365Z,6.00
2023-04-14T20:30:32.247Z,6.00
2023-04-14T20:33:01.119Z,5.90
2023-04-14T20:35:28.128Z,5.90
2023-04-14T20:37:56.612Z,5.90
2023-04-14T20:40:24.028Z,5.90
2023-04-14T20:42:57.154Z,6.00
2023-04-14T20:45:24.839Z,6.00
2023-04-14T20:47:51.904Z,6.00
2023-04-14T20:50:19.182Z,6.00
2023-04-14T20:52:46.700Z,6.00
2023-04-14T20:55:13.919Z,6.00
2023-04-14T20:57:45.064Z,6.00
2023-04-14T21:00:16.712Z,6.00
2023-04-14T21:02:44.773Z,6.00
2023-04-14T21:05:12.767Z,6.00
2023-04-14T21:07:40.223Z,6.00
2023-04-14T21:10:10.526Z,5.90
2023-04-14T21:12:41.760Z,6.00
2023-04-14T21:15:48.299Z,6.00
2023-04-14T21:18:13.201Z,6.00
2023-04-14T21:20:40.188Z,6.00
2023-04-14T21:23:07.343Z,6.00
2023-04-14T21:25:35.432Z,6.00
2023-04-14T21:28:02.608Z,6.00
2023-04-14T21:30:29.563Z,6.00
2023-04-14T21:32:56.531Z,6.00
2023-04-14T21:35:23.437Z,6.00
2023-04-14T21:37:50.384Z,6.00
2023-04-14T21:40:17.424Z,6.00
2023-04-14T21:42:44.382Z,6.00
2023-04-14T21:45:11.642Z,6.00
2023-04-14T21:47:38.714Z,6.00
2023-04-14T21:50:07.447Z,6.00
2023-04-14T21:52:34.466Z,6.00
2023-04-14T21:55:01.483Z,5.90
2023-04-14T21:57:42.908Z,5.90
2023-04-14T22:00:18.023Z,5.90
2023-04-14T22:02:45.834Z,5.90
2023-04-14T22:05:13.716Z,5.90
2023-04-14T22:07:41.375Z,5.90
2023-04-14T22:10:08.857Z,5.90
2023-04-14T22:12:36.222Z,5.90
2023-04-14T22:15:04.242Z,5.80
2023-04-14T22:17:31.556Z,5.80
2023-04-14T22:19:59.317Z,5.80
2023-04-14T22:22:26.648Z,5.80
2023-04-14T22:24:56.520Z,5.80
2023-04-14T22:27:24.123Z,5.80
2023-04-14T22:29:51.609Z,5.80
2023-04-14T22:32:18.770Z,5.80
2023-04-14T22:34:45.855Z,5.80
2023-04-14T22:37:12.801Z,5.80
2023-04-14T22:39:39.971Z,5.80
2023-04-14T22:42:07.331Z,5.70
2023-04-14T22:44:34.526Z,5.70
2023-04-14T22:47:01.955Z,5.70
2023-04-14T22:49:29.104Z,5.60
2023-04-14T22:51:59.296Z,5.60
2023-04-14T22:54:26.489Z,5.60
2023-04-14T22:56:53.789Z,5.60
2023-04-14T22:59:22.284Z,5.60
2023-04-14T23:01:49.447Z,5.60
2023-04-14T23:04:16.583Z,5.60
2023-04-14T23:06:47.428Z,5.60
2023-04-14T23:09:14.383Z,5.60
2023-04-14T23:11:41.320Z,5.60
2023-04-14T23:14:08.200Z,5.60
2023-04-14T23:16:35.123Z,5.60
2023-04-14T23:19:02.532Z,5.60
2023-04-14T23:21:30.326Z,5.60
2023-04-14T23:23:57.281Z,5.60
2023-04-14T23:26:24.946Z,5.60
2023-04-14T23:28:53.114Z,5.60
2023-04-14T23:31:20.281Z,5.60
2023-04-14T23:33:49.536Z,5.60
2023-04-14T23:36:16.731Z,5.60
2023-04-14T23:38:49.621Z,5.50
2023-04-14T23:41:17.285Z,5.50
2023-04-14T23:43:45.920Z,5.50
2023-04-14T23:46:12.927Z,5.40
2023-04-14T23:48:39.904Z,5.40
2023-04-14T23:51:18.414Z,5.40
2023-04-14T23:53:49.488Z,5.40
2023-04-14T23:56:17.011Z,5.40
2023-04-14T23:58:44.171Z,5.40
